Time;durP1;ratioP1;P1;durP2;ratioP2;P2;SDS_P1;SDS_P2;PMS_P1;PMS_P2;Temp;Humidity;BMP_temperature;BMP_pressure;BME280_temperature;BME280_humidity;BME280_pressure;Samples;Min_cycle;Max_cycle;Signal;HPM_P1;HPM_P2
2021/03/26 00:01:49;;;;;;;20.20;2.85;;;8.90;99.90;;;;;;4386428;32;20067;-75
2021/03/26 00:04:15;;;;;;;4.70;2.25;;;8.80;99.90;;;;;;4384957;32;20071;-75
2021/03/26 00:06:43;;;;;;;5.25;1.92;;;8.60;99.90;;;;;;4385514;32;20066;-75
2021/03/26 00:09:15;;;;;;;6.70;2.42;;;8.60;99.90;;;;;;4386952;32;20091;-75
2021/03/26 00:11:42;;;;;;;9.23;3.05;;;8.70;99.90;;;;;;4399726;32;20070;-76
2021/03/26 00:14:07;;;;;;;9.27;3.12;;;8.70;99.90;;;;;;4401259;32;20512;-75
2021/03/26 00:16:33;;;;;;;6.93;3.08;;;8.70;99.90;;;;;;4401123;32;20069;-75
2021/03/26 00:18:59;;;;;;;12.05;2.67;;;8.50;99.90;;;;;;4401232;32;20062;-75
2021/03/26 00:21:25;;;;;;;5.75;3.22;;;8.30;99.90;;;;;;4400440;32;20126;-75
2021/03/26 00:23:51;;;;;;;6.35;2.83;;;8.20;99.90;;;;;;4401192;32;20062;-75
2021/03/26 00:26:18;;;;;;;5.57;1.75;;;8.00;99.90;;;;;;4399841;32;20070;-75
2021/03/26 00:28:43;;;;;;;2.80;1.87;;;8.10;99.90;;;;;;4400143;32;20114;-75
2021/03/26 00:31:10;;;;;;;3.40;1.95;;;8.30;99.90;;;;;;4400315;32;20476;-75
2021/03/26 00:33:36;;;;;;;4.57;2.00;;;8.40;99.90;;;;;;4400533;32;20058;-75
2021/03/26 00:36:02;;;;;;;3.12;2.12;;;8.30;99.90;;;;;;4400428;32;20122;-76
2021/03/26 00:38:28;;;;;;;3.47;2.17;;;8.30;99.90;;;;;;4399409;32;20105;-75
2021/03/26 00:40:54;;;;;;;7.45;1.90;;;8.40;99.90;;;;;;4399938;32;20393;-75
2021/03/26 00:43:20;;;;;;;4.72;2.78;;;8.30;99.90;;;;;;4400089;32;20165;-75
2021/03/26 00:45:46;;;;;;;5.75;1.55;;;8.10;99.90;;;;;;4400232;32;20061;-75
2021/03/26 00:48:12;;;;;;;1.87;1.70;;;8.00;99.90;;;;;;4399490;32;20070;-75
2021/03/26 00:50:42;;;;;;;3.05;1.87;;;7.90;99.90;;;;;;4399656;32;20066;-75
2021/03/26 00:53:11;;;;;;;3.75;1.90;;;7.80;99.90;;;;;;4400012;32;20062;-75
2021/03/26 00:55:37;;;;;;;7.07;2.92;;;7.70;99.90;;;;;;4398719;32;20417;-75
2021/03/26 00:58:03;;;;;;;4.28;2.42;;;7.60;99.90;;;;;;4399418;32;20062;-75
2021/03/26 01:00:30;;;;;;;5.20;2.28;;;7.50;99.90;;;;;;4399380;32;20459;-75
2021/03/26 01:02:56;;;;;;;6.18;2.62;;;7.50;99.90;;;;;;4400430;32;20059;-75
2021/03/26 01:05:26;;;;;;;6.80;2.47;;;7.60;99.90;;;;;;4399029;32;20397;-75
2021/03/26 01:07:52;;;;;;;8.48;2.42;;;7.60;99.90;;;;;;4399452;32;20070;-75
2021/03/26 01:10:22;;;;;;;7.78;2.97;;;7.60;99.90;;;;;;4391090;32;20166;-76
2021/03/26 01:12:48;;;;;;;4.82;2.45;;;7.70;99.90;;;;;;4384828;32;20074;-75
2021/03/26 01:15:16;;;;;;;8.32;2.83;;;7.90;99.90;;;;;;4383914;32;20126;-76
2021/03/26 01:17:42;;;;;;;11.90;3.03;;;8.00;99.90;;;;;;4384290;32;20058;-75
2021/03/26 01:20:14;;;;;;;17.37;2.83;;;7.80;99.90;;;;;;4385224;32;20074;-75
2021/03/26 01:22:40;;;;;;;4.75;2.03;;;7.60;99.90;;;;;;4384875;32;20110;-75
2021/03/26 01:25:19;;;;;;;4.18;2.58;;;7.50;99.90;;;;;;4384184;32;20169;-75
2021/03/26 01:27:45;;;;;;;27.62;4.18;;;7.60;99.90;;;;;;4384383;32;20107;-75
2021/03/26 01:30:13;;;;;;;2.37;1.75;;;7.70;99.90;;;;;;4384378;32;20066;-75
2021/03/26 01:32:39;;;;;;;13.88;4.55;;;7.70;99.90;;;;;;4385116;32;20090;-75
2021/03/26 01:35:06;;;;;;;10.95;2.47;;;7.50;99.90;;;;;;4385477;32;20058;-75
2021/03/26 01:37:33;;;;;;;24.58;2.90;;;7.50;99.90;;;;;;4383393;32;20067;-75
2021/03/26 01:39:59;;;;;;;4.68;2.58;;;7.50;99.90;;;;;;4383603;32;20453;-75
2021/03/26 01:42:27;;;;;;;4.70;1.83;;;7.70;99.90;;;;;;4384507;32;20133;-75
2021/03/26 01:44:53;;;;;;;8.00;2.00;;;7.90;99.90;;;;;;4384491;32;20083;-75
2021/03/26 01:47:19;;;;;;;9.80;2.12;;;8.00;99.90;;;;;;4383905;32;20074;-75
2021/03/26 01:49:45;;;;;;;10.15;3.10;;;8.10;99.90;;;;;;4384112;32;20466;-76
2021/03/26 01:52:11;;;;;;;16.98;5.85;;;7.90;99.90;;;;;;4384332;32;20062;-75
2021/03/26 01:54:37;;;;;;;5.40;2.83;;;7.80;99.90;;;;;;4383520;32;20070;-75
2021/03/26 01:57:03;;;;;;;4.37;2.40;;;7.80;99.90;;;;;;4383917;32;20118;-75
2021/03/26 01:59:28;;;;;;;7.62;2.08;;;7.80;99.90;;;;;;4384919;32;20066;-75
2021/03/26 02:02:00;;;;;;;5.43;3.10;;;7.90;99.90;;;;;;4384557;32;20075;-75
2021/03/26 02:04:33;;;;;;;8.68;2.40;;;8.00;99.90;;;;;;4384589;32;20401;-75
2021/03/26 02:06:59;;;;;;;5.75;3.05;;;7.90;99.90;;;;;;4384548;32;20418;-75
2021/03/26 02:09:31;;;;;;;19.67;2.90;;;7.80;99.90;;;;;;4385253;32;20066;-76
2021/03/26 02:12:01;;;;;;;6.57;2.55;;;7.80;99.90;;;;;;4383123;32;20070;-75
2021/03/26 02:14:41;;;;;;;5.90;2.92;;;8.10;99.90;;;;;;4383597;32;20127;-75
2021/03/26 02:17:09;;;;;;;2.85;1.55;;;8.10;99.90;;;;;;4383921;32;20427;-75
2021/03/26 02:19:42;;;;;;;10.93;4.50;;;8.20;99.90;;;;;;4383315;32;20121;-75
2021/03/26 02:22:10;;;;;;;3.85;2.53;;;8.30;99.90;;;;;;4383529;32;20075;-75
2021/03/26 02:24:36;;;;;;;10.65;2.67;;;8.30;99.90;;;;;;4383657;32;20110;-75
2021/03/26 02:27:13;;;;;;;2.33;1.92;;;8.30;99.90;;;;;;4382998;32;20112;-75
2021/03/26 02:29:39;;;;;;;2.22;1.98;;;8.30;99.90;;;;;;4384437;32;20417;-75
2021/03/26 02:32:12;;;;;;;14.05;2.97;;;8.30;99.90;;;;;;4383063;32;20389;-75
2021/03/26 02:34:38;;;;;;;13.75;3.30;;;8.30;99.90;;;;;;4383158;32;20079;-75
2021/03/26 02:37:08;;;;;;;2.45;2.25;;;8.10;99.90;;;;;;4383315;32;20070;-75
2021/03/26 02:39:45;;;;;;;14.45;3.22;;;8.00;99.90;;;;;;4383529;32;20083;-75
2021/03/26 02:42:19;;;;;;;36.35;4.22;;;8.00;99.90;;;;;;4383398;32;20457;-75
2021/03/26 02:45:07;;;;;;;4.43;2.35;;;8.00;99.90;;;;;;4384064;32;20078;-75
2021/03/26 02:47:39;;;;;;;4.18;2.50;;;7.80;99.90;;;;;;4383217;32;20058;-75
2021/03/26 02:50:45;;;;;;;2.30;2.08;;;7.60;99.90;;;;;;4383353;32;20434;-75
2021/03/26 02:53:23;;;;;;;4.80;2.22;;;7.70;99.90;;;;;;4380477;32;20133;-75
2021/03/26 02:56:06;;;;;;;3.08;1.92;;;7.70;99.90;;;;;;4381191;32;20113;-75
2021/03/26 02:58:39;;;;;;;13.82;3.10;;;7.90;99.90;;;;;;4368601;32;20071;-75
2021/03/26 03:01:13;;;;;;;11.73;3.10;;;7.90;99.90;;;;;;4368555;32;20119;-75
2021/03/26 03:03:41;;;;;;;16.10;3.75;;;8.00;99.90;;;;;;4368505;32;20455;-75
2021/03/26 03:06:21;;;;;;;4.43;2.10;;;8.10;99.90;;;;;;4368258;32;20140;-75
2021/03/26 03:08:49;;;;;;;4.57;1.95;;;8.20;99.90;;;;;;4367880;32;20063;-75
2021/03/26 03:11:22;;;;;;;2.28;1.55;;;8.30;99.90;;;;;;4367941;32;20388;-75
2021/03/26 03:13:53;;;;;;;15.50;1.90;;;8.30;99.90;;;;;;4368113;32;20496;-75
2021/03/26 03:16:22;;;;;;;3.92;2.42;;;8.10;99.90;;;;;;4368609;32;20063;-75
2021/03/26 03:19:01;;;;;;;2.42;1.77;;;8.10;99.90;;;;;;4370625;32;20063;-75
2021/03/26 03:21:31;;;;;;;7.03;2.50;;;8.10;99.90;;;;;;4370123;32;20070;-75
2021/03/26 03:24:07;;;;;;;6.67;2.17;;;8.10;99.90;;;;;;4370574;32;20070;-75
2021/03/26 03:26:47;;;;;;;4.75;2.08;;;8.10;99.90;;;;;;4370831;32;20058;-76
2021/03/26 03:29:22;;;;;;;11.05;2.42;;;8.00;99.90;;;;;;4370405;32;20086;-75
2021/03/26 03:31:59;;;;;;;9.57;2.20;;;8.00;99.90;;;;;;4370261;32;20071;-76
2021/03/26 03:34:37;;;;;;;5.37;2.28;;;8.00;99.90;;;;;;4370277;32;20058;-75
2021/03/26 03:37:10;;;;;;;5.55;2.60;;;8.10;99.90;;;;;;4369636;32;20118;-76
2021/03/26 03:40:01;;;;;;;8.95;2.95;;;8.20;99.90;;;;;;4369790;32;20074;-76
2021/03/26 03:42:36;;;;;;;5.83;2.53;;;8.30;99.90;;;;;;4359395;32;20533;-75
2021/03/26 03:45:20;;;;;;;10.95;2.92;;;8.40;99.90;;;;;;4370356;32;20050;-75
2021/03/26 03:48:09;;;;;;;5.65;2.62;;;8.40;99.90;;;;;;4371042;32;20060;-75
2021/03/26 03:50:39;;;;;;;8.07;3.28;;;8.40;99.90;;;;;;4358490;32;20121;-75
2021/03/26 03:53:13;;;;;;;6.65;2.85;;;8.40;99.90;;;;;;4370446;32;20050;-75
2021/03/26 03:55:52;;;;;;;7.28;2.95;;;8.40;99.90;;;;;;4369514;32;20066;-75
2021/03/26 03:58:24;;;;;;;4.85;2.15;;;8.40;99.90;;;;;;4369760;32;20059;-75
2021/03/26 04:01:04;;;;;;;4.87;2.35;;;8.30;99.90;;;;;;4370633;32;20116;-75
2021/03/26 04:03:52;;;;;;;8.15;2.17;;;8.40;99.90;;;;;;4369860;32;20067;-75
2021/03/26 04:06:38;;;;;;;3.08;1.77;;;8.30;99.90;;;;;;4358555;32;20059;-76
2021/03/26 04:09:09;;;;;;;9.07;2.35;;;8.50;99.90;;;;;;4372551;32;20546;-76
2021/03/26 04:11:40;;;;;;;;;;;8.50;99.90;;;;;;4385913;32;20070;-76
2021/03/26 04:14:12;;;;;;;4.70;1.55;;;8.40;99.90;;;;;;4385764;32;19961;-76
2021/03/26 04:16:41;;;;;;;4.28;2.12;;;8.40;99.90;;;;;;4384855;32;20127;-76
2021/03/26 04:19:15;;;;;;;16.90;2.72;;;8.40;99.90;;;;;;4384931;32;20437;-76
2021/03/26 04:21:45;;;;;;;4.15;2.28;;;8.40;99.90;;;;;;4385091;32;20058;-76
2021/03/26 04:24:18;;;;;;;5.15;2.65;;;8.30;99.90;;;;;;4385336;32;20133;-75
2021/03/26 04:27:07;;;;;;;33.28;2.53;;;8.30;99.90;;;;;;4384775;32;20050;-75
2021/03/26 04:29:42;;;;;;;7.45;2.30;;;8.30;99.90;;;;;;4383936;32;20115;-75
2021/03/26 04:32:11;;;;;;;7.70;2.50;;;8.40;99.90;;;;;;4385471;32;20050;-76
2021/03/26 04:34:39;;;;;;;3.90;2.40;;;8.50;99.90;;;;;;4385175;32;20058;-76
2021/03/26 04:37:10;;;;;;;8.80;2.22;;;8.50;99.90;;;;;;4385488;32;20082;-75
2021/03/26 04:39:51;;;;;;;4.35;3.35;;;8.60;99.90;;;;;;4385466;32;20050;-75
2021/03/26 04:42:56;;;;;;;9.60;3.87;;;8.60;99.90;;;;;;4384897;32;20062;-75
2021/03/26 04:45:26;;;;;;;11.43;2.42;;;8.60;99.90;;;;;;4382439;32;20063;-76
2021/03/26 04:48:01;;;;;;;4.78;1.70;;;8.60;99.90;;;;;;4383433;32;20122;-75
2021/03/26 04:50:30;;;;;;;2.97;1.62;;;8.70;99.90;;;;;;4384765;32;20082;-76
2021/03/26 04:53:02;;;;;;;9.15;3.28;;;8.70;99.90;;;;;;4385551;32;20062;-75
2021/03/26 04:55:34;;;;;;;14.18;3.75;;;8.70;99.90;;;;;;4383794;32;20078;-75
2021/03/26 04:58:08;;;;;;;8.68;3.45;;;8.80;99.90;;;;;;4386160;32;20106;-74
2021/03/26 05:00:40;;;;;;;12.40;2.72;;;8.80;99.90;;;;;;4384607;32;20464;-74
2021/03/26 05:03:18;;;;;;;6.80;2.75;;;8.90;99.90;;;;;;4384242;32;20447;-74
2021/03/26 05:05:50;;;;;;;8.70;2.83;;;8.90;99.90;;;;;;4384426;32;20079;-74
2021/03/26 05:08:18;;;;;;;4.35;2.22;;;8.90;99.90;;;;;;4383608;32;20403;-75
2021/03/26 05:10:47;;;;;;;9.93;1.83;;;8.90;99.90;;;;;;4383258;32;20141;-75
2021/03/26 05:13:21;;;;;;;2.12;1.48;;;8.90;99.90;;;;;;4384374;32;20062;-75
2021/03/26 05:15:53;;;;;;;7.55;2.28;;;8.90;99.90;;;;;;4384758;32;20078;-75
2021/03/26 05:18:30;;;;;;;5.93;2.28;;;9.00;99.90;;;;;;4385016;32;20402;-75
2021/03/26 05:21:04;;;;;;;4.28;2.00;;;9.00;99.90;;;;;;4384212;32;20398;-75
2021/03/26 05:23:39;;;;;;;3.40;2.03;;;9.00;99.90;;;;;;4375884;32;20542;-75
2021/03/26 05:26:05;;;;;;;4.18;1.98;;;9.00;99.90;;;;;;4381080;32;20587;-75
2021/03/26 05:28:36;;;;;;;13.82;1.90;;;9.10;99.90;;;;;;4383828;32;20541;-75
2021/03/26 05:31:09;;;;;;;10.55;2.47;;;9.10;99.90;;;;;;4385621;32;20075;-74
2021/03/26 05:33:40;;;;;;;5.15;2.33;;;8.90;99.90;;;;;;4384720;32;20066;-75
2021/03/26 05:36:18;;;;;;;4.82;2.17;;;8.60;99.90;;;;;;4384193;32;20569;-75
2021/03/26 05:38:50;;;;;;;8.98;3.10;;;8.40;99.90;;;;;;4381575;32;20531;-74
2021/03/26 05:41:43;;;;;;;4.43;2.03;;;8.30;99.90;;;;;;4390451;32;20074;-74
2021/03/26 05:44:27;;;;;;;4.03;1.95;;;8.30;99.90;;;;;;4398067;32;20406;-75
2021/03/26 05:47:32;;;;;;;5.45;2.50;;;8.40;99.90;;;;;;4399520;32;20085;-75
2021/03/26 05:50:38;;;;;;;13.27;3.40;;;8.50;99.90;;;;;;4395952;32;20083;-74
2021/03/26 05:53:25;;;;;;;6.28;2.22;;;8.60;99.90;;;;;;4395857;32;20098;-75
2021/03/26 05:56:16;;;;;;;10.77;2.28;;;8.50;99.90;;;;;;4398404;32;20079;-76
2021/03/26 05:58:48;;;;;;;10.50;2.42;;;8.40;99.90;;;;;;4397423;32;20061;-75
2021/03/26 06:01:36;;;;;;;12.70;3.40;;;8.50;99.90;;;;;;4396978;32;20484;-75
2021/03/26 06:04:05;;;;;;;12.05;2.78;;;8.50;99.90;;;;;;4374976;32;20079;-75
2021/03/26 06:06:52;;;;;;;6.18;2.75;;;8.50;99.90;;;;;;4382105;32;20159;-75
2021/03/26 06:09:45;;;;;;;9.20;3.17;;;8.50;99.90;;;;;;4366301;32;20127;-74
2021/03/26 06:12:35;;;;;;;6.68;2.47;;;8.30;99.90;;;;;;4374609;32;20063;-75
2021/03/26 06:15:06;;;;;;;5.90;2.33;;;8.30;99.90;;;;;;4375711;32;20059;-75
2021/03/26 06:17:53;;;;;;;7.70;2.83;;;8.50;99.90;;;;;;4355761;32;20378;-73
2021/03/26 06:20:39;;;;;;;15.48;2.87;;;8.60;99.90;;;;;;4363425;32;20082;-74
2021/03/26 06:23:44;;;;;;;6.82;2.45;;;8.70;99.90;;;;;;4381541;32;20109;-74
2021/03/26 06:26:49;;;;;;;7.20;3.15;;;8.70;99.90;;;;;;4372482;32;20091;-74
2021/03/26 06:29:36;;;;;;;3.85;1.73;;;8.60;99.90;;;;;;4366684;32;20250;-74
2021/03/26 06:32:36;;;;;;;6.68;3.70;;;8.50;99.90;;;;;;4348648;32;20102;-74
2021/03/26 06:35:38;;;;;;;45.05;7.68;;;8.60;99.90;;;;;;4360426;32;20117;-74
2021/03/26 06:38:16;;;;;;;10.35;2.72;;;8.60;99.90;;;;;;4372002;32;20138;-75
2021/03/26 06:41:07;;;;;;;4.05;2.47;;;8.60;99.90;;;;;;4378705;32;20059;-76
2021/03/26 06:43:53;;;;;;;11.75;5.00;;;8.60;99.90;;;;;;4354495;32;20071;-76
2021/03/26 06:46:58;;;;;;;27.73;3.05;;;8.60;99.90;;;;;;4373609;32;20084;-76
2021/03/26 06:49:41;;;;;;;3.50;2.05;;;8.50;99.90;;;;;;4386210;32;20569;-75
2021/03/26 06:52:28;;;;;;;5.37;2.78;;;8.50;99.90;;;;;;4380484;32;20079;-75
2021/03/26 06:55:15;;;;;;;6.47;2.95;;;8.40;99.90;;;;;;4383590;32;20074;-74
2021/03/26 06:58:20;;;;;;;15.75;2.58;;;8.40;99.90;;;;;;4369970;32;20070;-74
2021/03/26 07:00:59;;;;;;;4.72;2.40;;;8.70;99.90;;;;;;4370274;32;20106;-74
2021/03/26 07:03:49;;;;;;;2.10;1.90;;;8.60;99.90;;;;;;4380245;32;20661;-74
2021/03/26 07:06:54;;;;;;;2.80;2.30;;;8.70;99.90;;;;;;4367631;32;20086;-74
2021/03/26 07:09:47;;;;;;;6.53;2.85;;;8.80;99.90;;;;;;4373582;32;20349;-74
2021/03/26 07:12:41;;;;;;;6.57;2.90;;;9.00;99.90;;;;;;4367772;32;20091;-74
2021/03/26 07:15:14;;;;;;;3.80;2.17;;;9.10;99.90;;;;;;4377978;32;20071;-74
2021/03/26 07:17:57;;;;;;;7.03;2.95;;;9.20;99.90;;;;;;4385888;32;20454;-74
2021/03/26 07:20:31;;;;;;;7.20;2.12;;;9.40;99.90;;;;;;4383832;32;20121;-74
2021/03/26 07:23:20;;;;;;;5.25;2.97;;;9.50;99.90;;;;;;4375510;32;20086;-75
2021/03/26 07:25:49;;;;;;;2.45;1.58;;;9.70;99.90;;;;;;4376963;32;20539;-74
2021/03/26 07:28:32;;;;;;;3.97;1.80;;;9.70;99.90;;;;;;4378543;32;20078;-74
2021/03/26 07:31:14;;;;;;;5.90;3.05;;;9.90;99.90;;;;;;4380342;32;20377;-74
2021/03/26 07:33:50;;;;;;;16.73;3.15;;;10.10;99.90;;;;;;4378198;32;20078;-74
2021/03/26 07:36:43;;;;;;;7.72;3.58;;;10.10;99.90;;;;;;4384939;32;20543;-74
2021/03/26 07:39:38;;;;;;;6.05;3.22;;;10.20;99.90;;;;;;4364161;32;20130;-75
2021/03/26 07:42:27;;;;;;;4.87;2.17;;;10.40;99.90;;;;;;4371015;32;20098;-73
2021/03/26 07:45:03;;;;;;;9.52;2.70;;;10.40;99.90;;;;;;4385894;32;20070;-74
2021/03/26 07:47:37;;;;;;;7.57;2.53;;;10.40;99.90;;;;;;4384373;32;20375;-74
2021/03/26 07:50:23;;;;;;;4.12;2.15;;;10.60;99.90;;;;;;4381457;32;20062;-74
2021/03/26 07:53:02;;;;;;;5.32;3.00;;;10.70;99.90;;;;;;4369589;32;20815;-74
2021/03/26 07:55:48;;;;;;;15.02;2.80;;;10.70;99.90;;;;;;4380973;32;20075;-74
2021/03/26 07:58:54;;;;;;;8.50;2.50;;;10.90;99.90;;;;;;4372349;32;20529;-75
2021/03/26 08:01:53;;;;;;;12.75;3.55;;;11.10;99.90;;;;;;4370622;32;20062;-75
2021/03/26 08:04:27;;;;;;;5.80;3.28;;;11.30;99.90;;;;;;4367111;32;20125;-74
2021/03/26 08:07:24;;;;;;;3.30;2.20;;;11.50;99.90;;;;;;4383600;32;20069;-74
2021/03/26 08:10:14;;;;;;;8.75;3.17;;;11.60;99.90;;;;;;4365936;32;20086;-74
2021/03/26 08:13:07;;;;;;;3.90;2.60;;;11.60;99.90;;;;;;4371902;32;20076;-74
2021/03/26 08:16:06;;;;;;;5.82;2.92;;;11.60;99.90;;;;;;4368713;32;20130;-75
2021/03/26 08:19:11;;;;;;;2.83;1.83;;;11.70;99.90;;;;;;4365954;32;20544;-75
2021/03/26 08:21:58;;;;;;;5.80;2.33;;;11.90;99.90;;;;;;4370605;32;20113;-75
2021/03/26 08:24:34;;;;;;;7.55;2.60;;;12.00;99.90;;;;;;4382756;32;20125;-75
2021/03/26 08:27:32;;;;;;;9.75;4.00;;;12.10;99.90;;;;;;4375458;32;20078;-75
2021/03/26 08:30:10;;;;;;;13.98;2.53;;;12.20;99.90;;;;;;4377515;32;20063;-77
2021/03/26 08:32:54;;;;;;;7.65;3.17;;;12.30;99.90;;;;;;4381665;32;20086;-74
2021/03/26 08:35:31;;;;;;;4.60;2.62;;;12.40;99.90;;;;;;4378996;32;20069;-76
2021/03/26 08:38:36;;;;;;;12.27;3.62;;;12.60;99.90;;;;;;4381115;32;20062;-75
2021/03/26 08:41:08;;;;;;;21.92;3.20;;;12.90;99.90;;;;;;4369253;32;20088;-76
2021/03/26 08:43:36;;;;;;;12.20;3.12;;;13.20;99.90;;;;;;4378652;32;20517;-76
2021/03/26 08:46:22;;;;;;;20.95;3.03;;;13.40;99.90;;;;;;4375854;32;20083;-75
2021/03/26 08:49:01;;;;;;;4.93;2.50;;;13.50;99.90;;;;;;4378850;32;20340;-76
2021/03/26 08:52:07;;;;;;;5.00;2.12;;;13.70;99.90;;;;;;4375911;32;20571;-74
2021/03/26 08:55:13;;;;;;;2.50;1.60;;;13.80;99.90;;;;;;4360066;32;20083;-74
2021/03/26 08:58:00;;;;;;;6.22;1.75;;;13.60;99.90;;;;;;4379706;32;20062;-74
2021/03/26 09:00:47;;;;;;;18.35;3.60;;;13.70;99.90;;;;;;4367098;32;20093;-74
2021/03/26 09:03:45;;;;;;;4.87;2.47;;;13.80;99.90;;;;;;4366791;32;20079;-76
2021/03/26 09:06:51;;;;;;;5.70;2.37;;;13.90;99.90;;;;;;4367603;32;20403;-76
2021/03/26 09:09:42;;;;;;;4.37;1.65;;;13.90;99.90;;;;;;4370122;32;20499;-75
2021/03/26 09:12:20;;;;;;;17.58;2.30;;;14.20;99.90;;;;;;4376376;32;20091;-76
2021/03/26 09:15:08;;;;;;;6.25;2.42;;;14.10;99.90;;;;;;4374908;32;20074;-75
2021/03/26 09:17:50;;;;;;;5.50;1.80;;;14.40;99.90;;;;;;4359655;32;20102;-73
2021/03/26 09:20:23;;;;;;;6.85;1.95;;;14.50;99.90;;;;;;4379733;32;20071;-74
2021/03/26 09:23:13;;;;;;;5.45;2.50;;;14.60;99.90;;;;;;4376035;32;20070;-76
2021/03/26 09:25:52;;;;;;;3.55;1.73;;;14.60;99.90;;;;;;4369931;32;20150;-76
2021/03/26 09:28:38;;;;;;;3.72;1.48;;;14.80;99.90;;;;;;4378385;32;20082;-74
2021/03/26 09:31:09;;;;;;;3.42;1.92;;;14.80;99.90;;;;;;4380768;32;20059;-75
2021/03/26 09:33:38;;;;;;;5.18;2.30;;;15.00;99.90;;;;;;4380879;32;20074;-75
2021/03/26 09:36:08;;;;;;;1.40;1.10;;;15.00;99.90;;;;;;4384105;32;20066;-75
2021/03/26 09:38:40;;;;;;;7.85;3.53;;;15.00;99.90;;;;;;4378963;32;126624;-75
2021/03/26 09:41:21;;;;;;;2.33;1.70;;;14.90;99.90;;;;;;4376670;32;20114;-75
2021/03/26 09:44:09;;;;;;;6.43;3.05;;;14.90;99.90;;;;;;4376450;32;20233;-77
2021/03/26 09:46:44;;;;;;;8.73;1.80;;;15.10;99.90;;;;;;4376330;32;20399;-77
2021/03/26 09:49:21;;;;;;;7.18;3.22;;;15.40;99.90;;;;;;4379637;32;20074;-77
2021/03/26 09:51:51;;;;;;;4.78;2.20;;;15.80;99.90;;;;;;4381686;32;20153;-76
2021/03/26 09:54:28;;;;;;;5.62;1.73;;;15.80;99.90;;;;;;4381266;32;20137;-77
2021/03/26 09:57:18;;;;;;;5.20;1.70;;;15.90;99.90;;;;;;4368186;32;20151;-76
2021/03/26 09:59:53;;;;;;;1.30;1.12;;;16.20;99.90;;;;;;4357540;32;20500;-75
2021/03/26 10:02:35;;;;;;;2.45;1.35;;;16.30;99.90;;;;;;4379958;32;20073;-75
2021/03/26 10:05:13;;;;;;;1.00;0.88;;;16.10;99.90;;;;;;4378756;32;20753;-76
2021/03/26 10:07:48;;;;;;;14.60;1.27;;;15.90;99.90;;;;;;4379915;32;20082;-76
2021/03/26 10:12:55;;;;;;;13.90;2.45;;;15.60;99.90;;;;;;4377707;32;20066;-76
2021/03/26 10:15:26;;;;;;;3.72;1.50;;;15.40;99.90;;;;;;4377974;32;20465;-76
2021/03/26 10:17:59;;;;;;;2.42;1.58;;;15.40;99.90;;;;;;4374627;32;19950;-76
2021/03/26 10:20:29;;;;;;;12.37;1.42;;;15.50;99.90;;;;;;4374501;32;20090;-76
2021/03/26 10:23:06;;;;;;;7.72;1.85;;;15.50;99.90;;;;;;4377768;32;20523;-75
2021/03/26 10:25:48;;;;;;;4.32;1.85;;;15.60;99.90;;;;;;4375700;32;20063;-76
2021/03/26 10:28:22;;;;;;;2.35;1.48;;;15.80;99.90;;;;;;4377427;32;20731;-77
2021/03/26 10:30:53;;;;;;;8.02;1.45;;;15.80;99.90;;;;;;4381753;32;20098;-75
2021/03/26 10:33:20;;;;;;;25.17;2.22;;;16.00;99.90;;;;;;4383499;32;20074;-75
2021/03/26 10:36:09;;;;;;;3.10;1.37;;;15.90;99.90;;;;;;4380903;32;20102;-75
2021/03/26 10:38:48;;;;;;;10.07;2.30;;;15.70;99.90;;;;;;4380483;32;20071;-77
2021/03/26 10:41:24;;;;;;;11.00;2.55;;;16.00;99.90;;;;;;4384064;32;20154;-76
2021/03/26 10:44:30;;;;;;;3.97;1.30;;;15.80;99.90;;;;;;4383842;32;20074;-75
2021/03/26 10:47:18;;;;;;;8.18;1.58;;;15.70;99.90;;;;;;4379762;32;20097;-74
2021/03/26 10:49:57;;;;;;;3.95;1.87;;;15.60;99.90;;;;;;4381227;32;20130;-73
2021/03/26 10:52:34;;;;;;;10.95;1.35;;;15.60;99.90;;;;;;4381541;32;20062;-74
2021/03/26 10:55:10;;;;;;;3.75;1.75;;;15.70;99.90;;;;;;4378625;32;20520;-74
2021/03/26 10:57:59;;;;;;;2.80;1.60;;;15.90;99.90;;;;;;4383384;32;20066;-75
2021/03/26 11:00:37;;;;;;;5.90;2.10;;;16.10;99.90;;;;;;4371055;32;20175;-74
2021/03/26 11:03:14;;;;;;;17.67;2.90;;;16.30;99.90;;;;;;4378734;32;20511;-74
2021/03/26 11:05:45;;;;;;;5.78;2.08;;;16.30;99.90;;;;;;4380973;32;20551;-74
2021/03/26 11:08:17;;;;;;;3.33;1.42;;;16.30;99.90;;;;;;4378125;32;20062;-74
2021/03/26 11:11:07;;;;;;;6.72;2.60;;;16.20;99.90;;;;;;4375905;32;20138;-74
2021/03/26 11:13:57;;;;;;;2.10;1.42;;;16.20;99.90;;;;;;4382790;32;20113;-74
2021/03/26 11:16:33;;;;;;;3.47;1.67;;;16.10;99.90;;;;;;4368298;32;20081;-74
2021/03/26 11:19:03;;;;;;;1.45;1.25;;;16.10;99.90;;;;;;4382693;32;20094;-75
2021/03/26 11:21:41;;;;;;;1.55;1.20;;;16.10;99.90;;;;;;4383560;32;20823;-74
2021/03/26 11:24:07;;;;;;;1.25;1.12;;;16.10;99.90;;;;;;4379638;32;20074;-74
2021/03/26 11:26:39;;;;;;;6.15;2.37;;;16.50;99.90;;;;;;4376965;32;20081;-74
2021/03/26 11:29:24;;;;;;;2.83;1.10;;;17.00;99.90;;;;;;4382278;32;20079;-74
2021/03/26 11:31:56;;;;;;;1.83;1.30;;;17.40;99.90;;;;;;4376300;32;21471;-75
2021/03/26 11:34:43;;;;;;;7.37;2.30;;;17.40;99.90;;;;;;4378844;32;20063;-75
2021/03/26 11:37:34;;;;;;;3.97;1.55;;;17.60;99.90;;;;;;4363572;32;20066;-78
2021/03/26 11:40:37;;;;;;;27.37;2.35;;;17.70;99.90;;;;;;4382091;32;20090;-75
2021/03/26 11:43:11;;;;;;;2.50;1.50;;;17.70;99.90;;;;;;4368222;32;20074;-75
2021/03/26 11:45:44;;;;;;;6.45;2.33;;;17.70;99.90;;;;;;4382180;32;20179;-75
2021/03/26 11:48:16;;;;;;;3.90;1.80;;;17.60;99.90;;;;;;4381517;32;20188;-74
2021/03/26 11:50:52;;;;;;;5.05;1.40;;;17.60;99.90;;;;;;4381786;32;20543;-73
2021/03/26 11:53:25;;;;;;;1.25;1.10;;;17.30;99.90;;;;;;4385071;32;20102;-75
2021/03/26 11:56:08;;;;;;;2.97;1.80;;;17.20;99.90;;;;;;4382719;32;20075;-74
2021/03/26 11:59:14;;;;;;;1.85;1.02;;;17.20;99.90;;;;;;4383130;32;20066;-75
2021/03/26 12:02:08;;;;;;;5.80;1.87;;;17.20;99.90;;;;;;4370772;32;20125;-75
2021/03/26 12:04:41;;;;;;;3.40;1.67;;;17.10;99.90;;;;;;4378700;32;20138;-74
2021/03/26 12:07:12;;;;;;;6.35;2.25;;;16.90;99.90;;;;;;4383317;32;20070;-74
2021/03/26 12:09:46;;;;;;;4.87;1.27;;;16.60;99.90;;;;;;4380027;32;20066;-74
2021/03/26 12:12:22;;;;;;;11.55;1.30;;;16.60;99.90;;;;;;4380388;32;20130;-74
2021/03/26 12:15:06;;;;;;;4.87;2.50;;;16.60;99.90;;;;;;4381589;32;20171;-74
2021/03/26 12:17:38;;;;;;;1.92;1.27;;;16.70;99.90;;;;;;4380340;32;20457;-74
2021/03/26 12:20:17;;;;;;;3.70;2.42;;;16.90;99.90;;;;;;4380833;32;20083;-74
2021/03/26 12:23:05;;;;;;;11.63;1.92;;;17.00;99.90;;;;;;4376340;32;20492;-75
2021/03/26 12:25:40;;;;;;;9.68;1.92;;;17.00;99.90;;;;;;4381954;32;20067;-75
2021/03/26 12:28:34;;;;;;;3.15;1.70;;;16.90;99.90;;;;;;4377123;32;20562;-75
2021/03/26 12:31:13;;;;;;;4.53;1.52;;;16.80;99.90;;;;;;4381951;32;20071;-75
2021/03/26 12:33:46;;;;;;;1.98;1.73;;;16.40;99.90;;;;;;4376860;32;20107;-75
2021/03/26 12:36:22;;;;;;;1.27;0.98;;;16.30;99.90;;;;;;4380541;32;20440;-75
2021/03/26 12:39:13;;;;;;;3.92;1.87;;;16.20;99.90;;;;;;4381425;32;20070;-76
2021/03/26 12:41:43;;;;;;;;;;;16.20;99.90;;;;;;4370003;32;20358;-75
2021/03/26 12:44:13;;;;;;;2.33;1.60;;;16.20;99.90;;;;;;4376210;32;19987;-75
2021/03/26 12:47:00;;;;;;;1.95;1.30;;;16.10;99.90;;;;;;4369056;32;20122;-75
2021/03/26 12:49:38;;;;;;;4.80;2.22;;;16.10;99.90;;;;;;4380203;32;20138;-75
2021/03/26 12:52:22;;;;;;;4.22;1.77;;;16.00;99.90;;;;;;4380300;32;20114;-75
2021/03/26 12:55:17;;;;;;;10.40;1.73;;;15.90;99.90;;;;;;4372755;32;20211;-77
2021/03/26 12:58:03;;;;;;;5.80;1.55;;;16.10;99.90;;;;;;4362093;32;20458;-75
2021/03/26 13:00:42;;;;;;;6.70;2.17;;;16.40;99.90;;;;;;4373595;32;20194;-76
2021/03/26 13:03:18;;;;;;;4.25;2.15;;;16.50;99.90;;;;;;4378537;32;20470;-78
2021/03/26 13:05:56;;;;;;;9.02;1.42;;;16.60;99.90;;;;;;4370059;32;20074;-76
2021/03/26 13:08:26;;;;;;;4.57;1.83;;;16.40;99.90;;;;;;4386478;32;20123;-75
2021/03/26 13:11:04;;;;;;;1.83;1.42;;;16.30;99.90;;;;;;4375355;32;20066;-76
2021/03/26 13:13:51;;;;;;;18.52;1.87;;;16.40;99.90;;;;;;4377317;32;20540;-75
2021/03/26 13:16:41;;;;;;;6.68;1.62;;;16.30;99.90;;;;;;4380690;32;20365;-75
2021/03/26 13:19:23;;;;;;;2.97;1.98;;;16.20;99.90;;;;;;4369995;32;20066;-75
2021/03/26 13:22:01;;;;;;;7.87;2.75;;;16.10;99.90;;;;;;4377842;32;20074;-75
2021/03/26 13:25:13;;;;;;;3.05;1.55;;;16.10;99.90;;;;;;4379928;32;20083;-75
2021/03/26 13:27:44;;;;;;;5.25;2.00;;;16.20;99.90;;;;;;4383053;32;20082;-75
2021/03/26 13:30:14;;;;;;;1.55;1.45;;;16.10;99.90;;;;;;4382279;32;20566;-75
2021/03/26 13:32:57;;;;;;;2.15;1.15;;;16.00;99.90;;;;;;4382707;32;20082;-75
2021/03/26 13:35:29;;;;;;;12.05;2.80;;;15.90;99.90;;;;;;4383542;32;20508;-75
2021/03/26 13:38:01;;;;;;;1.30;1.17;;;15.90;99.90;;;;;;4380836;32;20158;-76
2021/03/26 13:40:29;;;;;;;9.85;1.30;;;15.90;99.90;;;;;;4379423;32;20531;-76
2021/03/26 13:43:19;;;;;;;6.05;1.42;;;15.90;99.90;;;;;;4380084;32;20071;-76
2021/03/26 13:45:51;;;;;;;4.45;1.77;;;16.00;99.90;;;;;;4370971;32;20567;-77
2021/03/26 13:48:18;;;;;;;4.30;1.98;;;16.20;99.90;;;;;;4381717;32;20138;-76
2021/03/26 13:50:59;;;;;;;3.95;2.00;;;16.50;99.90;;;;;;4382788;32;20524;-75